PLU weather

Pampulha - Carlos Drummond de Andrade Airport
Belo Horizonte, Minas Gerais, Brazil

Public forecast

Using degrees Celsius for public forecast. Weather courtesy of forecast.io.

Current aviation weather report (METAR) for Pampulha - Carlos Drummond de Andrade Airport

Retrieved 2020/06/05 14:00 UTC (2 hours ago):

SBBH 051400Z 10009KT 9999 FEW030 23/13 Q1026

Aviation forecast (TAF) for Pampulha - Carlos Drummond de Andrade Airport

Forecast is more than 12 hours old.

Retrieved 2012/03/26 18:12 UTC (8 years ago):

TAF SBBH 261639Z 2618/2706 09005KT 9999 SCT030 TX28/2618Z TN20/2705Z PROB30 2619/2624 8000 TSRA BKN035 FEW045CB RMK PGG